TimePDT,TemperatureF,Dew PointF,Humidity,Sea Level PressureIn,VisibilityMPH,Wind Direction,Wind SpeedMPH,Gust SpeedMPH,PrecipitationIn,Events,Conditions,WindDirDegrees,DateUTC
12:53 AM,51.1,46.9,86,30.13,10.0,Calm,Calm,-,N/A,,Clear,0,2013-03-30 07:53:00
1:53 AM,51.1,46.9,86,30.14,10.0,Calm,Calm,-,N/A,,Clear,0,2013-03-30 08:53:00
2:53 AM,48.9,46.0,90,30.13,10.0,Calm,Calm,-,N/A,,Clear,0,2013-03-30 09:53:00
3:53 AM,48.0,46.0,93,30.12,10.0,Calm,Calm,-,N/A,,Clear,0,2013-03-30 10:53:00
4:53 AM,46.9,45.0,93,30.12,10.0,Calm,Calm,-,N/A,,Clear,0,2013-03-30 11:53:00
5:32 AM,44.6,44.6,100,30.11,10.0,Calm,Calm,-,N/A,,Partly Cloudy,0,2013-03-30 12:32:00
5:48 AM,46.4,44.6,93,30.11,10.0,Calm,Calm,-,N/A,,Mostly Cloudy,0,2013-03-30 12:48:00
5:53 AM,46.0,45.0,96,30.12,10.0,Calm,Calm,-,N/A,,Mostly Cloudy,0,2013-03-30 12:53:00
6:30 AM,46.4,44.6,93,30.12,1.8,Calm,Calm,-,N/A,,Overcast,0,2013-03-30 13:30:00
6:40 AM,46.4,46.4,100,30.12,0.5,Calm,Calm,-,N/A,Fog,Fog,0,2013-03-30 13:40:00
6:53 AM,46.0,46.0,100,30.12,0.8,Calm,Calm,-,N/A,,Mist,0,2013-03-30 13:53:00
7:01 AM,46.4,46.4,100,30.12,1.0,SSE,3.5,-,N/A,,Mist,160,2013-03-30 14:01:00
7:08 AM,46.4,46.4,100,30.12,0.5,Calm,Calm,-,N/A,Fog,Fog,0,2013-03-30 14:08:00
7:20 AM,46.4,46.4,100,30.12,0.2,Calm,Calm,-,N/A,Fog,Fog,0,2013-03-30 14:20:00
7:53 AM,46.9,46.9,100,30.12,0.2,Calm,Calm,-,N/A,Fog,Fog,0,2013-03-30 14:53:00
8:53 AM,48.0,48.0,100,30.13,0.5,Calm,Calm,-,N/A,Fog,Fog,0,2013-03-30 15:53:00
9:43 AM,48.2,48.2,100,30.12,2.0,Calm,Calm,-,N/A,,Overcast,0,2013-03-30 16:43:00
9:53 AM,48.9,48.0,97,30.13,5.0,Calm,Calm,-,N/A,,Overcast,0,2013-03-30 16:53:00
10:53 AM,51.1,48.9,92,30.12,10.0,Calm,Calm,-,N/A,,Overcast,0,2013-03-30 17:53:00
11:03 AM,51.8,48.2,88,30.11,10.0,Calm,Calm,-,N/A,,Overcast,0,2013-03-30 18:03:00
11:44 AM,55.4,50.0,82,30.10,10.0,Calm,Calm,-,N/A,,Partly Cloudy,0,2013-03-30 18:44:00
11:53 AM,55.9,50.0,80,30.10,10.0,Calm,Calm,-,N/A,,Partly Cloudy,0,2013-03-30 18:53:00
12:53 PM,62.1,51.1,67,30.07,10.0,Calm,Calm,-,N/A,,Clear,0,2013-03-30 19:53:00
1:53 PM,66.9,52.0,59,30.04,10.0,Calm,Calm,-,N/A,,Clear,0,2013-03-30 20:53:00
2:53 PM,69.1,54.0,58,30.01,10.0,West,5.8,-,N/A,,Clear,270,2013-03-30 21:53:00
3:53 PM,73.0,54.0,51,29.98,10.0,Variable,3.5,-,N/A,,Clear,0,2013-03-30 22:53:00
4:53 PM,77.0,54.0,45,29.95,10.0,NNW,4.6,-,N/A,,Clear,330,2013-03-30 23:53:00
5:53 PM,78.1,53.1,42,29.92,10.0,North,5.8,-,N/A,,Clear,360,2013-03-31 00:53:00
6:53 PM,73.9,55.0,52,29.92,10.0,West,3.5,-,N/A,,Clear,280,2013-03-31 01:53:00
7:53 PM,71.1,55.0,57,29.92,10.0,North,3.5,-,N/A,,Clear,360,2013-03-31 02:53:00
8:53 PM,69.1,53.1,57,29.95,10.0,Calm,Calm,-,N/A,,Clear,0,2013-03-31 03:53:00
9:53 PM,64.9,52.0,63,30.00,10.0,Calm,Calm,-,N/A,,Mostly Cloudy,0,2013-03-31 04:53:00
10:53 PM,62.1,48.9,62,30.00,10.0,Calm,Calm,-,N/A,,Clear,0,2013-03-31 05:53:00
11:53 PM,60.1,48.9,67,30.01,10.0,NNE,6.9,-,N/A,,Clear,20,2013-03-31 06:53:00